Time;durP1;ratioP1;P1;durP2;ratioP2;P2;SDS_P1;SDS_P2;PMS_P1;PMS_P2;Temp;Humidity;BMP_temperature;BMP_pressure;BME280_temperature;BME280_humidity;BME280_pressure;Samples;Min_cycle;Max_cycle;Signal;HPM_P1;HPM_P2
2021/07/06 00:01:05;;;;;;;4.25;3.40;;;21.40;87.90;;;;;;5003543;28;20048;-51
2021/07/06 00:03:31;;;;;;;4.85;3.70;;;21.30;88.10;;;;;;5017862;28;20079;-55
2021/07/06 00:05:56;;;;;;;5.03;4.38;;;21.30;88.30;;;;;;5016302;28;20030;-51
2021/07/06 00:08:22;;;;;;;4.88;3.50;;;21.30;88.60;;;;;;4999864;28;20488;-54
2021/07/06 00:10:49;;;;;;;3.40;3.10;;;21.20;88.60;;;;;;5016260;28;20034;-56
2021/07/06 00:13:14;;;;;;;3.75;3.13;;;21.20;88.70;;;;;;5014739;28;20029;-56
2021/07/06 00:15:40;;;;;;;3.25;2.92;;;21.20;88.70;;;;;;5015231;28;20135;-56
2021/07/06 00:18:05;;;;;;;3.40;3.10;;;21.10;89.00;;;;;;5017903;28;20647;-50
2021/07/06 00:20:31;;;;;;;3.55;2.90;;;21.10;89.10;;;;;;5021147;28;20112;-52
2021/07/06 00:22:59;;;;;;;4.45;2.90;;;21.10;89.30;;;;;;5013322;28;20096;-50
2021/07/06 00:25:26;;;;;;;3.22;2.92;;;21.10;89.30;;;;;;5018669;28;20480;-52
2021/07/06 00:27:53;;;;;;;3.60;3.08;;;21.10;89.70;;;;;;5014205;28;20129;-49
2021/07/06 00:30:19;;;;;;;3.33;3.00;;;20.90;90.00;;;;;;5014285;28;20033;-54
2021/07/06 00:32:45;;;;;;;3.28;2.97;;;20.90;90.00;;;;;;5014842;28;20560;-54
2021/07/06 00:35:12;;;;;;;3.78;3.38;;;20.90;90.10;;;;;;5013809;28;20113;-54
2021/07/06 00:37:37;;;;;;;3.20;2.90;;;21.00;90.10;;;;;;5013691;28;20029;-53
2021/07/06 00:40:05;;;;;;;4.47;3.00;;;21.00;90.40;;;;;;5014237;28;20037;-52
2021/07/06 00:42:31;;;;;;;3.55;3.00;;;21.00;90.10;;;;;;5013964;28;20025;-50
2021/07/06 00:44:57;;;;;;;4.53;2.70;;;21.00;90.20;;;;;;5014973;28;20034;-52
2021/07/06 00:47:36;;;;;;;3.53;2.80;;;20.80;90.50;;;;;;5013843;28;20038;-52
2021/07/06 00:50:11;;;;;;;4.07;2.50;;;20.80;90.70;;;;;;5013855;28;20050;-51
2021/07/06 00:52:37;;;;;;;4.95;3.10;;;20.80;90.70;;;;;;5015421;28;20033;-54
2021/07/06 00:55:04;;;;;;;4.50;2.72;;;20.70;90.90;;;;;;4996504;28;20117;-50
2021/07/06 00:57:30;;;;;;;3.65;2.85;;;20.70;90.80;;;;;;5013481;28;20022;-53
2021/07/06 00:59:58;;;;;;;3.80;2.72;;;20.70;90.90;;;;;;5014082;28;20100;-56
2021/07/06 01:02:24;;;;;;;2.97;2.53;;;20.70;91.00;;;;;;5017636;28;20026;-59
2021/07/06 01:04:50;;;;;;;4.38;2.88;;;20.70;91.00;;;;;;5016427;28;20408;-55
2021/07/06 01:07:16;;;;;;;4.32;3.20;;;20.70;91.20;;;;;;5013895;28;20460;-53
2021/07/06 01:09:41;;;;;;;3.10;2.80;;;20.70;91.00;;;;;;5015910;28;20041;-57
2021/07/06 01:12:09;;;;;;;2.75;2.55;;;20.70;91.00;;;;;;5015342;28;20034;-55
2021/07/06 01:14:35;;;;;;;3.45;3.08;;;20.80;91.10;;;;;;5014629;28;20033;-53
2021/07/06 01:17:00;;;;;;;5.13;3.13;;;20.80;90.90;;;;;;5013869;28;20030;-51
2021/07/06 01:19:27;;;;;;;4.18;3.50;;;20.70;91.00;;;;;;5018897;28;20038;-55
2021/07/06 01:21:52;;;;;;;3.70;3.28;;;20.70;91.10;;;;;;5013890;28;20056;-53
2021/07/06 01:24:18;;;;;;;6.00;4.18;;;20.70;91.10;;;;;;5014174;28;20057;-56
2021/07/06 01:26:44;;;;;;;4.70;4.10;;;20.70;91.00;;;;;;5019105;28;20096;-56
2021/07/06 01:29:09;;;;;;;6.90;4.28;;;20.80;91.10;;;;;;5013724;28;20072;-56
2021/07/06 01:31:35;;;;;;;6.00;3.38;;;20.70;91.10;;;;;;5013728;28;20044;-56
2021/07/06 01:34:00;;;;;;;4.18;3.67;;;20.80;91.10;;;;;;5014929;28;20157;-52
2021/07/06 01:36:26;;;;;;;4.95;4.13;;;20.80;91.10;;;;;;5013429;28;20034;-55
2021/07/06 01:38:51;;;;;;;4.10;3.70;;;20.80;91.10;;;;;;5013746;28;20099;-51
2021/07/06 01:41:17;;;;;;;3.50;3.20;;;20.80;91.10;;;;;;5016326;28;20036;-55
2021/07/06 01:43:45;;;;;;;6.65;3.45;;;20.80;91.00;;;;;;5015309;28;20105;-52
2021/07/06 01:46:11;;;;;;;7.70;5.80;;;20.80;91.10;;;;;;5012755;28;20030;-54
2021/07/06 01:48:37;;;;;;;6.78;5.53;;;20.80;91.00;;;;;;5013125;28;20540;-56
2021/07/06 01:51:02;;;;;;;4.47;4.07;;;20.80;91.10;;;;;;5015576;28;20026;-52
2021/07/06 01:53:28;;;;;;;6.65;4.97;;;20.70;91.10;;;;;;5013133;28;20036;-54
2021/07/06 01:55:55;;;;;;;5.43;4.53;;;20.70;91.10;;;;;;5013295;28;20041;-53
2021/07/06 01:58:22;;;;;;;4.20;3.80;;;20.70;91.20;;;;;;5013094;28;20026;-53
2021/07/06 02:00:55;;;;;;;6.55;3.95;;;20.70;91.20;;;;;;5013256;28;20022;-50
2021/07/06 02:03:20;;;;;;;4.95;3.50;;;20.60;91.30;;;;;;4979159;28;20500;-52
2021/07/06 02:05:49;;;;;;;3.95;3.30;;;20.60;91.40;;;;;;5013054;28;20038;-52
2021/07/06 02:08:19;;;;;;;5.70;4.65;;;20.60;91.40;;;;;;5013330;28;20026;-49
2021/07/06 02:10:48;;;;;;;4.95;3.85;;;20.50;91.50;;;;;;5013139;28;20117;-55
2021/07/06 02:13:23;;;;;;;5.55;4.30;;;20.50;91.50;;;;;;5012407;28;20560;-54
2021/07/06 02:15:49;;;;;;;;;;;20.60;91.50;;;;;;4998987;28;20541;-52
2021/07/06 02:18:19;;;;;;;4.28;3.88;;;20.50;91.50;;;;;;5018615;28;19920;-55
2021/07/06 02:20:45;;;;;;;5.32;3.63;;;20.50;91.60;;;;;;5012968;28;20076;-56
2021/07/06 02:23:11;;;;;;;5.75;4.20;;;20.40;91.60;;;;;;5013265;28;20030;-55
2021/07/06 02:25:37;;;;;;;4.68;4.25;;;20.40;91.70;;;;;;5015781;28;20026;-53
2021/07/06 02:28:03;;;;;;;4.45;3.85;;;20.40;91.70;;;;;;4994625;28;20444;-53
2021/07/06 02:30:29;;;;;;;4.80;4.25;;;20.40;91.70;;;;;;5012855;28;20452;-56
2021/07/06 02:32:54;;;;;;;4.55;4.15;;;20.40;91.70;;;;;;5017415;28;20060;-56
2021/07/06 02:35:23;;;;;;;4.78;4.10;;;20.30;91.70;;;;;;5012487;28;20046;-49
2021/07/06 02:37:49;;;;;;;4.53;4.13;;;20.30;91.70;;;;;;5015426;28;20033;-52
2021/07/06 02:40:15;;;;;;;5.68;4.50;;;20.40;91.80;;;;;;5014869;28;20046;-56
2021/07/06 02:42:42;;;;;;;4.97;4.00;;;20.30;91.80;;;;;;5012370;28;20076;-53
2021/07/06 02:45:09;;;;;;;4.40;3.80;;;20.30;91.90;;;;;;5012887;28;20034;-55
2021/07/06 02:47:35;;;;;;;7.05;4.15;;;20.30;91.90;;;;;;5011842;28;20025;-54
2021/07/06 02:50:03;;;;;;;4.72;3.90;;;20.20;92.00;;;;;;5012345;28;20549;-53
2021/07/06 02:52:29;;;;;;;4.30;3.85;;;20.20;92.00;;;;;;5017158;28;20041;-53
2021/07/06 02:54:54;;;;;;;5.18;3.80;;;20.20;92.00;;;;;;4997331;28;20030;-59
2021/07/06 02:57:35;;;;;;;5.90;3.40;;;20.20;92.10;;;;;;4994104;28;20022;-54
2021/07/06 03:00:13;;;;;;;6.15;3.50;;;20.20;92.10;;;;;;5011769;28;20062;-53
2021/07/06 03:02:41;;;;;;;5.20;3.60;;;20.10;92.10;;;;;;5012131;28;20029;-49
2021/07/06 03:05:08;;;;;;;5.35;3.50;;;20.10;92.20;;;;;;5011659;28;20025;-56
2021/07/06 03:07:35;;;;;;;5.28;3.55;;;20.10;92.20;;;;;;5016870;28;20080;-55
2021/07/06 03:10:06;;;;;;;4.40;3.70;;;20.00;92.30;;;;;;5014807;28;20040;-55
2021/07/06 03:12:32;;;;;;;5.90;4.05;;;20.10;92.40;;;;;;5018090;28;20060;-56
2021/07/06 03:14:58;;;;;;;6.32;3.60;;;20.10;92.40;;;;;;5015020;28;20151;-54
2021/07/06 03:17:23;;;;;;;3.83;3.22;;;20.10;92.40;;;;;;5014538;28;20025;-49
2021/07/06 03:19:49;;;;;;;5.70;3.45;;;20.10;92.30;;;;;;5020548;28;20095;-53
2021/07/06 03:22:14;;;;;;;5.82;3.63;;;20.10;92.30;;;;;;5022427;28;20026;-55
2021/07/06 03:24:40;;;;;;;6.45;3.75;;;20.10;92.30;;;;;;5018298;28;20117;-55
2021/07/06 03:27:06;;;;;;;5.00;3.83;;;20.10;92.30;;;;;;5028558;28;20034;-57
2021/07/06 03:29:31;;;;;;;4.57;3.65;;;20.10;92.20;;;;;;5001252;28;20045;-53
2021/07/06 03:31:57;;;;;;;4.03;3.50;;;20.20;92.30;;;;;;5016254;28;20030;-56
2021/07/06 03:34:23;;;;;;;4.07;3.53;;;20.10;92.50;;;;;;5026264;28;20120;-52
2021/07/06 03:36:49;;;;;;;3.95;3.55;;;20.20;92.20;;;;;;5026557;28;20030;-51
2021/07/06 03:39:15;;;;;;;7.13;3.50;;;20.10;92.20;;;;;;5007989;28;20485;-53
2021/07/06 03:41:40;;;;;;;6.97;3.60;;;20.10;92.30;;;;;;5015512;28;20036;-50
2021/07/06 03:44:06;;;;;;;3.97;3.30;;;20.20;92.20;;;;;;5028253;28;20516;-55
2021/07/06 03:46:31;;;;;;;5.05;3.50;;;20.20;92.20;;;;;;5016816;28;20036;-55
2021/07/06 03:49:02;;;;;;;4.07;3.20;;;20.20;92.20;;;;;;5025076;28;20056;-51
2021/07/06 03:51:29;;;;;;;5.65;3.50;;;20.20;92.20;;;;;;5024637;28;20029;-54
2021/07/06 03:53:54;;;;;;;6.00;3.60;;;20.10;92.30;;;;;;5022461;28;20109;-57
2021/07/06 03:56:20;;;;;;;4.53;3.30;;;20.10;92.30;;;;;;5024006;28;20049;-54
2021/07/06 03:58:45;;;;;;;4.88;3.30;;;20.10;92.30;;;;;;5021129;28;20041;-54
2021/07/06 04:01:11;;;;;;;6.03;3.28;;;20.20;92.30;;;;;;5009459;28;20063;-54
2021/07/06 04:03:37;;;;;;;4.38;3.85;;;20.20;92.20;;;;;;5019902;28;20037;-56
2021/07/06 04:06:02;;;;;;;7.57;3.55;;;20.30;92.30;;;;;;4993360;28;20095;-58
2021/07/06 04:08:28;;;;;;;4.45;3.60;;;20.30;92.20;;;;;;5007612;28;20041;-58
2021/07/06 04:10:53;;;;;;;4.95;3.13;;;20.30;92.20;;;;;;5001334;28;20486;-52
2021/07/06 04:13:19;;;;;;;4.47;3.35;;;20.30;92.20;;;;;;5020645;28;20076;-51
2021/07/06 04:15:44;;;;;;;3.78;3.38;;;20.30;92.20;;;;;;5028604;28;20370;-52
2021/07/06 04:18:10;;;;;;;3.50;3.17;;;20.30;92.10;;;;;;5009563;28;20025;-56
2021/07/06 04:20:36;;;;;;;4.72;3.88;;;20.30;92.10;;;;;;5026966;28;20479;-54
2021/07/06 04:23:01;;;;;;;6.35;3.65;;;20.40;92.00;;;;;;5002804;28;20025;-56
2021/07/06 04:25:27;;;;;;;5.80;3.40;;;20.50;91.90;;;;;;5001878;28;20132;-52
2021/07/06 04:27:52;;;;;;;5.13;3.30;;;20.50;91.80;;;;;;5023717;28;20430;-53
2021/07/06 04:30:18;;;;;;;9.82;3.92;;;20.50;91.80;;;;;;5021174;28;20454;-58
2021/07/06 04:32:45;;;;;;;5.60;3.13;;;20.60;91.80;;;;;;5020674;28;20032;-55
2021/07/06 04:35:12;;;;;;;3.95;3.53;;;20.60;91.70;;;;;;5022808;28;20067;-53
2021/07/06 04:37:38;;;;;;;4.25;3.42;;;20.60;91.70;;;;;;5023700;28;20396;-55
2021/07/06 04:40:04;;;;;;;5.57;3.50;;;20.70;91.60;;;;;;5025587;28;20033;-52
2021/07/06 04:42:30;;;;;;;7.95;3.80;;;20.70;91.50;;;;;;5028550;28;20074;-52
2021/07/06 04:44:56;;;;;;;6.88;3.67;;;20.80;91.50;;;;;;5024602;28;20029;-51
2021/07/06 04:47:22;;;;;;;5.53;3.72;;;20.80;91.40;;;;;;5031137;28;20140;-56
2021/07/06 04:49:48;;;;;;;7.93;4.15;;;20.90;91.40;;;;;;5027846;28;20052;-55
2021/07/06 04:52:14;;;;;;;6.55;4.40;;;20.90;91.30;;;;;;5024278;28;20030;-53
2021/07/06 04:54:39;;;;;;;6.10;4.13;;;21.00;91.10;;;;;;5031097;28;20041;-53
2021/07/06 04:57:05;;;;;;;5.22;3.50;;;21.00;91.10;;;;;;5026038;28;20045;-51
2021/07/06 04:59:30;;;;;;;6.28;3.63;;;21.10;91.10;;;;;;5032026;28;20021;-55
2021/07/06 05:01:56;;;;;;;5.78;3.58;;;21.10;91.00;;;;;;5023685;28;20408;-54
2021/07/06 05:04:22;;;;;;;7.72;4.35;;;21.10;91.00;;;;;;5031591;28;20049;-56
2021/07/06 05:06:47;;;;;;;6.93;4.75;;;21.10;91.00;;;;;;5030963;28;20484;-54
2021/07/06 05:09:13;;;;;;;7.15;4.35;;;21.20;90.90;;;;;;5028639;28;20552;-50
2021/07/06 05:11:38;;;;;;;6.30;3.90;;;21.20;90.80;;;;;;5025885;28;20017;-54
2021/07/06 05:14:04;;;;;;;7.88;4.07;;;21.30;90.70;;;;;;5023894;28;20029;-55
2021/07/06 05:16:31;;;;;;;4.50;3.53;;;21.30;90.70;;;;;;5028736;28;20050;-57
2021/07/06 05:18:57;;;;;;;13.02;8.43;;;21.40;90.70;;;;;;5026997;28;20041;-54
2021/07/06 05:21:22;;;;;;;7.15;5.95;;;21.30;90.60;;;;;;5028482;28;20025;-52
2021/07/06 05:23:48;;;;;;;13.95;6.18;;;21.30;90.50;;;;;;5029440;28;20026;-55
2021/07/06 05:26:14;;;;;;;6.78;4.38;;;21.40;90.50;;;;;;5007783;28;20081;-59
2021/07/06 05:28:40;;;;;;;6.32;4.32;;;21.40;90.50;;;;;;5027429;28;20485;-53
2021/07/06 05:31:05;;;;;;;6.90;4.05;;;21.40;90.50;;;;;;5028197;28;20426;-56
2021/07/06 05:33:31;;;;;;;6.20;3.63;;;21.40;90.50;;;;;;5027176;28;20026;-55
2021/07/06 05:35:57;;;;;;;6.97;3.60;;;21.40;90.40;;;;;;5032595;28;20109;-53
2021/07/06 05:38:23;;;;;;;6.65;5.07;;;21.40;90.50;;;;;;5027966;28;20038;-54
2021/07/06 05:40:55;;;;;;;5.72;3.92;;;21.30;90.60;;;;;;5028991;28;20032;-56
2021/07/06 05:43:25;;;;;;;5.22;3.97;;;21.10;91.00;;;;;;5008887;28;20038;-52
2021/07/06 05:45:57;;;;;;;5.65;4.20;;;21.10;91.00;;;;;;5024861;28;20018;-55
2021/07/06 05:48:23;;;;;;;6.68;3.95;;;21.10;91.00;;;;;;5029067;28;20124;-56
2021/07/06 05:50:49;;;;;;;7.03;3.33;;;21.20;90.90;;;;;;5030091;28;20175;-55
2021/07/06 05:53:14;;;;;;;5.18;3.75;;;21.30;90.70;;;;;;5026902;28;20485;-58
2021/07/06 05:55:42;;;;;;;5.40;4.63;;;21.50;90.60;;;;;;5023408;28;20045;-52
2021/07/06 05:58:08;;;;;;;5.15;3.92;;;21.60;90.40;;;;;;5009996;28;20022;-54
2021/07/06 06:00:38;;;;;;;5.03;3.50;;;21.70;90.30;;;;;;5003473;28;20037;-51
2021/07/06 06:03:08;;;;;;;8.48;3.88;;;21.80;90.20;;;;;;5025246;28;20029;-54
2021/07/06 06:05:34;;;;;;;4.72;4.03;;;21.80;90.10;;;;;;5019842;28;20109;-52
2021/07/06 06:08:00;;;;;;;4.07;3.60;;;21.90;90.10;;;;;;5019239;28;20073;-55
2021/07/06 06:10:25;;;;;;;5.35;3.60;;;21.90;90.00;;;;;;5027696;28;20045;-56
2021/07/06 06:12:51;;;;;;;4.18;3.40;;;22.00;90.20;;;;;;5026726;28;20036;-56
2021/07/06 06:15:16;;;;;;;9.45;3.65;;;22.00;89.60;;;;;;5009846;28;20037;-53
2021/07/06 06:17:42;;;;;;;5.10;3.40;;;22.10;89.40;;;;;;5024231;28;20026;-56
2021/07/06 06:20:09;;;;;;;6.07;3.40;;;22.10;89.60;;;;;;5024217;28;20025;-52
2021/07/06 06:22:35;;;;;;;9.05;5.30;;;22.10;89.60;;;;;;5025270;28;20494;-52
2021/07/06 06:25:01;;;;;;;3.80;3.45;;;22.20;89.20;;;;;;5023895;28;20042;-55
2021/07/06 06:27:26;;;;;;;7.28;3.47;;;22.20;89.20;;;;;;5024623;28;20500;-53
2021/07/06 06:29:52;;;;;;;6.60;3.10;;;22.30;88.70;;;;;;5028943;28;20029;-56
2021/07/06 06:32:17;;;;;;;9.40;3.75;;;22.40;88.90;;;;;;5027026;28;20034;-56
2021/07/06 06:34:44;;;;;;;5.32;3.38;;;22.40;88.80;;;;;;5031333;28;20061;-56
2021/07/06 06:37:10;;;;;;;7.20;3.40;;;22.40;88.30;;;;;;5022847;28;20029;-56
2021/07/06 06:39:36;;;;;;;6.13;3.03;;;22.30;88.60;;;;;;5021277;28;20056;-54
2021/07/06 06:42:01;;;;;;;5.72;3.67;;;22.30;88.60;;;;;;5026244;28;20718;-53
2021/07/06 06:44:27;;;;;;;5.68;3.60;;;22.30;88.80;;;;;;5029405;28;20034;-50
2021/07/06 06:46:52;;;;;;;4.45;3.05;;;22.40;88.60;;;;;;5022665;28;20425;-54
2021/07/06 06:49:18;;;;;;;12.32;7.50;;;22.50;88.60;;;;;;5027023;28;20116;-58
2021/07/06 06:51:44;;;;;;;6.05;4.45;;;22.60;88.10;;;;;;5022092;28;20026;-56
2021/07/06 06:54:09;;;;;;;5.57;3.45;;;22.70;87.90;;;;;;5032177;28;20041;-55
2021/07/06 06:56:39;;;;;;;7.93;4.03;;;22.80;87.70;;;;;;5020916;28;20477;-54
2021/07/06 06:59:06;;;;;;;8.07;3.90;;;22.80;87.60;;;;;;5008573;28;20033;-54
2021/07/06 07:01:32;;;;;;;4.55;3.10;;;22.90;87.40;;;;;;5021208;28;20049;-57
2021/07/06 07:03:58;;;;;;;5.25;3.70;;;22.90;87.20;;;;;;5030583;28;20038;-56
2021/07/06 07:06:23;;;;;;;6.85;3.65;;;22.90;87.30;;;;;;5024806;28;20034;-53
2021/07/06 07:08:49;;;;;;;4.68;3.20;;;23.00;86.80;;;;;;5026703;28;20066;-50
2021/07/06 07:11:14;;;;;;;5.32;3.05;;;22.90;86.30;;;;;;5027920;28;20461;-59
2021/07/06 07:13:40;;;;;;;4.90;3.80;;;23.00;86.80;;;;;;5023535;28;20033;-54
2021/07/06 07:16:06;;;;;;;31.48;10.80;;;23.00;86.50;;;;;;5021402;28;20080;-55
2021/07/06 07:18:31;;;;;;;12.90;5.95;;;23.20;86.30;;;;;;5006004;28;20034;-56
2021/07/06 07:20:57;;;;;;;8.38;3.42;;;23.30;86.30;;;;;;5024976;28;20531;-55
2021/07/06 07:23:22;;;;;;;4.95;3.25;;;23.40;84.80;;;;;;5029598;28;20084;-54
2021/07/06 07:25:48;;;;;;;6.10;3.78;;;23.40;84.80;;;;;;5012306;28;20025;-55
2021/07/06 07:28:13;;;;;;;8.18;5.70;;;23.40;84.90;;;;;;5026706;28;20044;-55
2021/07/06 07:30:39;;;;;;;11.68;4.60;;;23.50;84.80;;;;;;5025363;28;20397;-51
2021/07/06 07:33:05;;;;;;;8.27;3.90;;;23.50;85.10;;;;;;5020907;28;20037;-52
2021/07/06 07:35:30;;;;;;;6.07;3.42;;;23.60;85.30;;;;;;5020961;28;20030;-52
2021/07/06 07:37:56;;;;;;;6.03;3.13;;;23.80;84.40;;;;;;5024136;28;20026;-56
2021/07/06 07:40:21;;;;;;;5.45;3.10;;;23.90;84.10;;;;;;5022064;28;20034;-55
2021/07/06 07:42:50;;;;;;;8.43;3.75;;;24.10;83.60;;;;;;5007578;28;20157;-56
2021/07/06 07:45:16;;;;;;;8.45;3.70;;;24.20;82.90;;;;;;5026988;28;20040;-56
2021/07/06 07:47:42;;;;;;;4.93;2.85;;;24.30;82.10;;;;;;5030069;28;20101;-54
2021/07/06 07:50:09;;;;;;;6.57;3.40;;;24.30;81.80;;;;;;5022987;28;20039;-59
2021/07/06 07:52:35;;;;;;;5.25;3.42;;;24.40;81.40;;;;;;5003976;28;20032;-56
2021/07/06 07:55:04;;;;;;;5.60;3.45;;;24.50;80.90;;;;;;5004716;28;20033;-56
2021/07/06 07:57:30;;;;;;;4.65;3.08;;;24.60;80.20;;;;;;5020735;28;20046;-55
2021/07/06 07:59:56;;;;;;;6.13;2.97;;;24.60;80.60;;;;;;5023020;28;20061;-56
2021/07/06 08:02:23;;;;;;;5.15;3.17;;;24.70;80.20;;;;;;5003558;28;20040;-56
2021/07/06 08:04:48;;;;;;;5.55;3.08;;;24.80;80.80;;;;;;5024017;28;20068;-56
2021/07/06 08:07:14;;;;;;;4.95;3.30;;;24.90;79.50;;;;;;5028648;28;20060;-55
2021/07/06 08:09:39;;;;;;;4.88;2.85;;;25.10;78.00;;;;;;5024415;28;20033;-58
2021/07/06 08:12:06;;;;;;;10.70;4.82;;;25.20;78.60;;;;;;5025249;28;20038;-55
2021/07/06 08:14:32;;;;;;;4.25;2.78;;;25.30;77.60;;;;;;5031195;28;20030;-55
2021/07/06 08:16:58;;;;;;;4.25;2.70;;;25.20;74.30;;;;;;5024773;28;20045;-55
2021/07/06 08:19:24;;;;;;;6.88;3.00;;;25.20;72.40;;;;;;5024928;28;20130;-59
2021/07/06 08:21:50;;;;;;;6.82;2.92;;;25.10;72.10;;;;;;5035804;28;20558;-57
2021/07/06 08:24:17;;;;;;;6.32;2.75;;;25.10;71.70;;;;;;5035458;28;20124;-55
2021/07/06 08:26:43;;;;;;;3.90;3.00;;;25.30;71.70;;;;;;5027452;28;20090;-55
2021/07/06 08:29:09;;;;;;;5.10;2.67;;;25.40;71.10;;;;;;5021661;28;20030;-57
2021/07/06 08:31:34;;;;;;;3.70;2.80;;;25.40;70.90;;;;;;5010797;28;20038;-58
2021/07/06 08:34:00;;;;;;;4.35;3.33;;;25.50;70.60;;;;;;5021887;28;20367;-54
2021/07/06 08:36:26;;;;;;;6.70;3.08;;;25.60;70.50;;;;;;5025635;28;20022;-54
2021/07/06 08:38:51;;;;;;;9.27;3.33;;;25.60;70.30;;;;;;5030098;28;20079;-55
2021/07/06 08:41:17;;;;;;;5.15;2.70;;;25.70;71.20;;;;;;5031732;28;20038;-57
2021/07/06 08:43:42;;;;;;;3.30;2.70;;;25.90;70.60;;;;;;5027784;28;20022;-53
2021/07/06 08:46:08;;;;;;;4.97;2.50;;;25.90;71.20;;;;;;5026887;28;20062;-55
2021/07/06 08:48:35;;;;;;;5.88;3.20;;;25.90;70.40;;;;;;5035047;28;20115;-56
2021/07/06 08:51:04;;;;;;;7.80;3.45;;;26.00;70.40;;;;;;5032056;28;20032;-52
2021/07/06 08:53:30;;;;;;;4.68;3.00;;;26.10;68.70;;;;;;5029283;28;20091;-57
2021/07/06 08:55:57;;;;;;;10.10;3.17;;;26.10;69.40;;;;;;5023869;28;20034;-58
2021/07/06 08:58:22;;;;;;;11.25;3.78;;;26.20;69.80;;;;;;5009090;28;20100;-53
2021/07/06 09:00:48;;;;;;;5.63;2.53;;;26.50;69.30;;;;;;5029199;28;20441;-54
2021/07/06 09:03:14;;;;;;;5.65;2.70;;;26.50;69.10;;;;;;5026699;28;20494;-54
2021/07/06 09:05:39;;;;;;;4.55;2.50;;;26.30;68.70;;;;;;5034930;28;20096;-58
2021/07/06 09:08:06;;;;;;;8.00;3.28;;;26.30;69.30;;;;;;5029494;28;20524;-56
2021/07/06 09:10:35;;;;;;;5.18;2.53;;;26.20;69.80;;;;;;5029785;28;20086;-54
2021/07/06 09:13:01;;;;;;;6.45;3.15;;;26.30;69.00;;;;;;5024537;28;20485;-57
2021/07/06 09:15:31;;;;;;;5.20;2.45;;;26.30;69.30;;;;;;5010554;28;20041;-55
2021/07/06 09:18:07;;;;;;;3.22;2.63;;;26.40;68.00;;;;;;5026184;28;20022;-57
2021/07/06 09:20:34;;;;;;;5.03;2.78;;;26.40;69.10;;;;;;5031808;28;20081;-57
2021/07/06 09:23:18;;;;;;;6.60;2.72;;;26.70;68.70;;;;;;5026725;28;20042;-57
2021/07/06 09:25:44;;;;;;;6.72;2.95;;;26.80;68.00;;;;;;5029586;28;20058;-57
2021/07/06 09:28:23;;;;;;;4.07;2.85;;;26.80;67.90;;;;;;5022014;28;20072;-56
2021/07/06 09:30:49;;;;;;;15.02;4.90;;;26.80;66.90;;;;;;5026642;28;20030;-54
2021/07/06 09:33:26;;;;;;;15.43;3.85;;;26.90;67.10;;;;;;5013565;28;20025;-57
2021/07/06 09:35:52;;;;;;;11.40;3.25;;;26.90;67.20;;;;;;5022805;28;20512;-56
2021/07/06 09:38:18;;;;;;;7.40;2.63;;;27.00;66.60;;;;;;5015135;28;20043;-54
2021/07/06 09:40:44;;;;;;;6.03;2.58;;;27.00;66.40;;;;;;5030136;28;20444;-57
2021/07/06 09:43:15;;;;;;;5.10;2.90;;;27.10;64.90;;;;;;5025938;28;20061;-59
2021/07/06 09:45:48;;;;;;;7.20;3.05;;;27.20;65.70;;;;;;5010011;28;20022;-60
2021/07/06 09:48:14;;;;;;;3.33;2.80;;;27.20;66.30;;;;;;5008489;28;20038;-57
2021/07/06 09:50:39;;;;;;;2.65;2.28;;;27.40;65.80;;;;;;5018544;28;20045;-56
2021/07/06 09:53:27;;;;;;;12.25;2.97;;;27.40;66.80;;;;;;5031329;28;20029;-55
2021/07/06 09:55:52;;;;;;;2.97;2.50;;;27.30;66.00;;;;;;5024642;28;20038;-56
2021/07/06 09:58:18;;;;;;;4.40;2.50;;;27.40;66.50;;;;;;5009853;28;20080;-55
2021/07/06 10:00:43;;;;;;;5.63;2.35;;;27.60;66.40;;;;;;5027591;28;20414;-55
2021/07/06 10:03:10;;;;;;;2.50;2.30;;;27.80;66.20;;;;;;5021370;28;20087;-56
2021/07/06 10:05:36;;;;;;;4.70;2.65;;;28.00;66.00;;;;;;5027584;28;20440;-51
2021/07/06 10:08:02;;;;;;;5.75;3.72;;;28.00;64.80;;;;;;5014358;28;20035;-56
2021/07/06 10:10:28;;;;;;;5.85;2.47;;;28.10;63.40;;;;;;5030925;28;20113;-53
2021/07/06 10:12:55;;;;;;;4.10;2.67;;;28.20;63.60;;;;;;5022947;28;20561;-58
2021/07/06 10:15:23;;;;;;;3.65;2.30;;;28.40;63.40;;;;;;5033304;28;20132;-59
2021/07/06 10:17:50;;;;;;;3.88;2.75;;;28.50;62.70;;;;;;5023360;28;20037;-58
2021/07/06 10:20:25;;;;;;;3.78;2.72;;;28.70;63.10;;;;;;5019823;28;20029;-54
2021/07/06 10:23:01;;;;;;;2.20;2.03;;;28.90;62.30;;;;;;5025403;28;20029;-57
2021/07/06 10:25:29;;;;;;;6.90;2.70;;;29.10;62.00;;;;;;5032223;28;20073;-54
2021/07/06 10:27:59;;;;;;;4.50;2.70;;;29.20;61.90;;;;;;5033419;28;20041;-56
2021/07/06 10:30:29;;;;;;;5.55;2.72;;;29.10;62.00;;;;;;5023507;28;20402;-53
2021/07/06 10:33:00;;;;;;;8.82;2.83;;;28.90;63.10;;;;;;5027217;28;20113;-58
2021/07/06 10:35:41;;;;;;;6.57;2.70;;;29.00;62.80;;;;;;5032372;28;20160;-56
2021/07/06 10:41:05;;;;;;;5.68;2.80;;;28.90;61.60;;;;;;5015908;28;20049;-60
2021/07/06 10:43:42;;;;;;;5.75;2.70;;;28.80;62.30;;;;;;5031897;28;20489;-56
2021/07/06 10:46:20;;;;;;;5.82;2.65;;;28.70;62.00;;;;;;5029021;28;20025;-55
2021/07/06 10:49:02;;;;;;;4.15;2.40;;;28.50;61.40;;;;;;5025010;28;20034;-56
2021/07/06 10:51:34;;;;;;;6.93;2.60;;;28.60;61.20;;;;;;5029524;28;20104;-56
2021/07/06 10:54:18;;;;;;;2.50;2.30;;;28.50;61.10;;;;;;5030395;28;20040;-56
2021/07/06 10:56:51;;;;;;;3.97;2.25;;;28.70;60.70;;;;;;5027818;28;20530;-55
2021/07/06 10:59:30;;;;;;;3.33;2.35;;;28.70;61.30;;;;;;5009941;28;20069;-52
2021/07/06 11:01:58;;;;;;;4.57;2.42;;;28.60;62.00;;;;;;5028090;28;20030;-57
2021/07/06 11:04:40;;;;;;;3.75;2.40;;;28.80;62.60;;;;;;5005518;28;20120;-57
2021/07/06 11:07:07;;;;;;;3.35;2.58;;;28.90;61.40;;;;;;5019821;28;20040;-55
2021/07/06 11:09:34;;;;;;;3.63;2.40;;;28.70;62.20;;;;;;4993564;28;20025;-58
2021/07/06 11:12:29;;;;;;;3.65;2.47;;;28.70;62.10;;;;;;5004232;28;20021;-55
2021/07/06 11:15:00;;;;;;;5.35;2.90;;;28.80;62.90;;;;;;4997930;28;20025;-58
2021/07/06 11:17:41;;;;;;;4.35;2.50;;;29.00;62.90;;;;;;5023664;28;20034;-56
2021/07/06 11:20:11;;;;;;;3.80;2.70;;;29.00;62.70;;;;;;5025595;28;20026;-55
2021/07/06 11:22:44;;;;;;;5.93;2.63;;;29.00;62.80;;;;;;5021158;28;20433;-59
2021/07/06 11:25:37;;;;;;;8.30;2.70;;;28.90;62.70;;;;;;5025191;28;20392;-56
2021/07/06 11:28:11;;;;;;;9.20;2.97;;;29.10;62.50;;;;;;5032390;28;20069;-57
2021/07/06 11:30:52;;;;;;;4.40;2.50;;;28.90;62.00;;;;;;5029919;28;20115;-58
2021/07/06 11:33:24;;;;;;;5.18;2.60;;;29.10;61.60;;;;;;5027445;28;20485;-55
2021/07/06 11:35:52;;;;;;;4.05;2.40;;;29.00;63.10;;;;;;5015564;28;20042;-56
2021/07/06 11:38:21;;;;;;;4.47;2.65;;;29.20;63.80;;;;;;5024281;28;20026;-58
2021/07/06 11:41:02;;;;;;;5.22;2.85;;;29.60;63.50;;;;;;5022212;28;20033;-57
2021/07/06 11:43:29;;;;;;;5.88;2.75;;;29.90;62.90;;;;;;5027223;28;20060;-60
2021/07/06 11:46:00;;;;;;;4.90;3.10;;;30.20;62.60;;;;;;5030811;28;20049;-59
2021/07/06 11:48:31;;;;;;;3.88;2.63;;;30.10;62.40;;;;;;5021950;28;20169;-57
2021/07/06 11:50:59;;;;;;;3.10;2.53;;;29.90;61.40;;;;;;5029429;28;20037;-58
2021/07/06 11:53:33;;;;;;;2.53;2.33;;;29.60;61.60;;;;;;5027929;28;20164;-58
2021/07/06 11:56:01;;;;;;;4.10;2.38;;;29.40;62.40;;;;;;5033627;28;20108;-57
2021/07/06 11:58:29;;;;;;;6.25;4.10;;;29.20;62.50;;;;;;5027441;28;20026;-55
2021/07/06 12:00:58;;;;;;;7.80;3.50;;;29.10;62.30;;;;;;5031065;28;20030;-59
2021/07/06 12:03:35;;;;;;;9.45;8.60;;;29.00;62.70;;;;;;5034470;28;20029;-53
2021/07/06 12:06:21;;;;;;;5.30;2.60;;;28.90;62.90;;;;;;5027941;28;20128;-57
2021/07/06 12:08:52;;;;;;;5.03;2.58;;;28.90;63.00;;;;;;5010838;28;20501;-53
2021/07/06 12:11:20;;;;;;;3.42;2.50;;;28.80;62.80;;;;;;5029594;28;20075;-59
2021/07/06 12:13:49;;;;;;;5.38;2.72;;;28.70;63.20;;;;;;5029305;28;20083;-55
2021/07/06 12:16:21;;;;;;;3.70;2.60;;;28.60;63.50;;;;;;5029560;28;20087;-58
2021/07/06 12:18:51;;;;;;;7.38;3.17;;;28.60;63.70;;;;;;5024259;28;20512;-58
2021/07/06 12:21:32;;;;;;;7.13;2.72;;;28.40;63.80;;;;;;5027116;28;20060;-58
2021/07/06 12:24:03;;;;;;;6.70;2.70;;;28.40;64.80;;;;;;5029277;28;20368;-56
2021/07/06 12:26:29;;;;;;;4.85;2.85;;;28.20;64.80;;;;;;5033427;28;20048;-57
2021/07/06 12:28:56;;;;;;;5.93;2.80;;;28.20;65.50;;;;;;5027345;28;20501;-60
2021/07/06 12:31:27;;;;;;;3.70;2.85;;;28.10;64.90;;;;;;5028226;28;20037;-53
2021/07/06 12:34:02;;;;;;;21.27;3.97;;;28.10;66.20;;;;;;5015453;28;20024;-53
2021/07/06 12:36:32;;;;;;;5.90;3.08;;;27.50;71.20;;;;;;5030238;28;20111;-57
2021/07/06 12:39:14;;;;;;;14.10;3.60;;;26.00;78.40;;;;;;5036030;28;20041;-53
2021/07/06 12:41:45;;;;;;;11.20;3.45;;;24.90;83.50;;;;;;5027834;28;20026;-53
2021/07/06 12:44:12;;;;;;;6.57;3.65;;;24.00;88.00;;;;;;5031374;28;20095;-55
2021/07/06 12:46:38;;;;;;;9.13;3.50;;;23.80;89.50;;;;;;5025997;28;20048;-57
2021/07/06 12:49:04;;;;;;;9.50;3.63;;;23.50;90.50;;;;;;5029642;28;20034;-55
2021/07/06 12:51:30;;;;;;;6.13;3.35;;;23.50;90.70;;;;;;5022406;28;20033;-51